• Join FlightAware (Why Join?)
  • Login
  • US Flag 
03:44PM EDT


 

Airport Tracker/Info


-or-


 

Live Flight TrackerFlight Track Log ✈ NKS347 ✈ 26-Apr-2012 ✈ KDTW - KLGA

Flight Track Log - Related Links

Times and Time Zones

All times are in EDT time to prevent confusion due to time zone crossing. See the NKS347 flight status page for this flight to view local times or setup timezone preferences in your user account.

Time Position Orientation Groundspeed Altitude Reporting Facility
EDT Latitude Longitude Course Direction KTS MPH feet Rate Location/Type
04:11PM 42.2314 -83.3342 39° Northeast 136 157 1,300  Level Cleveland Center
04:13PM 42.2997 -83.2586 46° Northeast 239 275 4,500 2,340 Climbing Cleveland Center
04:14PM 42.3536 -83.1822 107° East 292 336 7,800 2,700 Climbing Cleveland Center
04:15PM 42.3253 -83.0575 112° Southeast 328 377 10,400 2,040 Climbing Cleveland Center
04:16PM 42.2861 -82.9267 111° Southeast 342 394 12,300 1,260 Climbing Cleveland Center
04:17PM 42.2472 -82.7878 105° East 378 435 13,000 300 Climbing Cleveland Center
04:18PM 42.2206 -82.6494 89° East 392 451 13,000 1,080 Level Cleveland Center
04:19PM 42.2233 -82.4983 92° East 386 444 15,200 2,220 Climbing Cleveland Center
04:20PM 42.2194 -82.3439 97° East 403 464 17,500 2,400 Climbing Cleveland Center
04:21PM 42.2053 -82.1808 95° East 427 491 20,000 2,220 Climbing Cleveland Center
04:22PM 42.1950 -82.0097 118° Southeast 449 517 22,000 1,500 Climbing Cleveland Center
04:23PM 42.1403 -81.8739 140° Southeast 449 517 23,000 1,380 Climbing Cleveland Center
04:24PM 42.0353 -81.7572 139° Southeast 447 514 24,800 1,800 Climbing Cleveland Center
04:25PM 41.9364 -81.6411 140° Southeast 463 533 26,700 1,740 Climbing Cleveland Center
04:26PM 41.8311 -81.5222 139° Southeast 488 562 28,300 1,740 Climbing Cleveland Center
04:27PM 41.7297 -81.4039 140° Southeast 493 567 30,200 1,620 Climbing Cleveland Center
04:28PM 41.6161 -81.2747 133° Southeast 492 566 31,600 1,140 Climbing Cleveland Center
04:29PM 41.5189 -81.1378 99° East 492 566 32,500 1,020 Climbing Cleveland Center
04:30PM 41.4967 -80.9464 96° East 497 572 33,700 1,200 Climbing Cleveland Center
04:31PM 41.4803 -80.7550 97° East 504 580 34,900 600 Climbing Cleveland Center
04:32PM 41.4639 -80.5664 97° East 517 595 35,000  Climbing Cleveland Center
04:33PM 41.4450 -80.3753 96° East 517 595 35,000  Level Cleveland Center
04:34PM 41.4319 -80.2064 98° East 517 595 35,000  Level Cleveland Center
04:35PM 41.4125 -80.0156 98° East 522 601 35,000  Level Cleveland Center
04:36PM 41.3925 -79.8275 97° East 522 601 35,100  Climbing Cleveland Center
04:37PM 41.3744 -79.6394 97° East 517 595 35,000 -60 Descending Cleveland Center
04:38PM 41.3561 -79.4544 98° East 517 595 35,000  Level Cleveland Center
04:39PM 41.3375 -79.2722 98° East 512 589 35,000  Level Cleveland Center
04:40PM 41.3186 -79.0903 97° East 501 577 35,000  Level Cleveland Center
04:41PM 41.3014 -78.9025 98° East 501 577 35,000  Level Cleveland Center
04:42PM 41.2819 -78.7208 98° East 501 577 35,000  Level Cleveland Center
04:43PM 41.2622 -78.5444 99° East 501 577 35,000 -360 Level Cleveland Center
04:45PM 41.2303 -78.2728 99° East 496 571 34,200 -840 Descending New York Center
04:46PM 41.2083 -78.0881 100° East 496 571 33,000 -600 Descending New York Center
04:47PM 41.1839 -77.9061 99° East 496 571 33,000 -780 Level New York Center
04:48PM 41.1617 -77.7192 99° East 496 571 31,500 -2,040 Descending New York Center
04:49PM 41.1392 -77.5322 101° East 501 577 29,100 -1,740 Descending New York Center
04:50PM 41.1136 -77.3561 100° East 501 577 28,000 -1,140 Descending New York Center
04:51PM 41.0917 -77.1858 100° East 481 554 26,900 -1,140 Descending New York Center
04:52PM 41.0694 -77.0186 100° East 468 539 25,800 -1,020 Descending New York Center
04:53PM 41.0467 -76.8542 101° East 457 526 25,000 -600 Descending New York Center
04:54PM 41.0236 -76.6925 105° East 452 520 24,700 -1,380 Descending New York Center
04:55PM 40.9787 -76.4784 108° East 441 507 22,000 -2,040 Descending FlightAware ADS-B
04:56PM 40.9525 -76.3688 108° East 438 504 20,800 -1,860 Descending FlightAware ADS-B
04:56PM 40.9320 -76.2841 108° East 434 499 19,700 -1,920 Descending FlightAware ADS-B
04:57PM 40.9027 -76.1634 108° East 421 484 18,200 -1,800 Descending FlightAware ADS-B
04:58PM 40.8810 -76.0738 108° East 405 466 17,100 -1,620 Descending FlightAware ADS-B
04:58PM 40.8638 -76.0039 108° East 389 448 16,400 -1,560 Descending FlightAware ADS-B
04:59PM 40.8464 -75.9338 108° East 381 438 15,500 -1,740 Descending FlightAware ADS-B
04:59PM 40.8283 -75.8607 108° East 374 430 14,600 -1,620 Descending FlightAware ADS-B
05:00PM 40.8096 -75.7845 108° East 369 425 13,700 -1,260 Descending FlightAware ADS-B
05:00PM 40.7925 -75.7150 108° East 363 418 13,200 -480 Descending FlightAware ADS-B
05:01PM 40.7765 -75.6512 108° East 364 419 13,200  Level FlightAware ADS-B
05:01PM 40.7589 -75.5816 108° East 368 423 13,200  Level FlightAware ADS-B
05:02PM 40.7416 -75.5123 108° East 367 422 13,200  Level FlightAware ADS-B
05:02PM 40.7261 -75.4495 105° East 367 422 13,200  Level FlightAware ADS-B
05:03PM 40.7130 -75.3832 105° East 368 423 13,200  Level FlightAware ADS-B
05:03PM 40.7000 -75.3179 105° East 367 422 13,200 -120 Level FlightAware ADS-B
05:04PM 40.6867 -75.2515 105° East 369 425 13,100 -720 Descending FlightAware ADS-B
05:04PM 40.6737 -75.1874 106° East 355 409 12,500 -1,380 Descending FlightAware ADS-B
05:05PM 40.6675 -75.1598 113° Southeast 353 406 12,100 -1,920 Descending FlightAware ADS-B
05:05PM 40.6653 -75.1531 119° Southeast 353 406 12,000 -1,500 Descending FlightAware ADS-B
05:05PM 40.6616 -75.1443 125° Southeast 349 402 11,900 -1,380 Descending FlightAware ADS-B
05:05PM 40.6581 -75.1378 132° Southeast 347 399 11,800 -1,500 Descending FlightAware ADS-B
05:05PM 40.6450 -75.1188 133° Southeast 342 394 11,500 -1,620 Descending FlightAware ADS-B
05:06PM 40.6127 -75.0733 132° Southeast 338 389 10,700 -1,200 Descending FlightAware ADS-B
05:06PM 40.5820 -75.0292 132° Southeast 319 367 10,300 -660 Descending FlightAware ADS-B
05:06PM 40.5751 -75.0191 127° Southeast 314 361 10,300 -480 Level FlightAware ADS-B
05:06PM 40.5706 -75.0113 120° Southeast 317 365 10,200 -600 Descending FlightAware ADS-B
05:06PM 40.5664 -75.0016 114° Southeast 320 368 10,200  Level FlightAware ADS-B
05:06PM 40.5631 -74.9917 111° Southeast 321 369 10,200  Level FlightAware ADS-B
05:07PM 40.5461 -74.9332 111° Southeast 318 366 10,200  Level FlightAware ADS-B
05:07PM 40.5305 -74.8793 111° Southeast 317 365 10,200  Level FlightAware ADS-B
05:08PM 40.5142 -74.8249 112° Southeast 316 364 10,200  Level FlightAware ADS-B
05:08PM 40.4971 -74.7687 112° Southeast 315 362 10,200  Level FlightAware ADS-B
05:09PM 40.4799 -74.7120 112° Southeast 316 364 10,200  Level FlightAware ADS-B
05:10PM 40.4635 -74.6578 112° Southeast 316 364 10,200  Level FlightAware ADS-B
05:10PM 40.4474 -74.6043 111° Southeast 315 362 10,200  Level FlightAware ADS-B
05:10PM 40.4354 -74.5642 108° East 315 362 10,200  Level FlightAware ADS-B
05:11PM 40.4328 -74.5535 101° East 317 365 10,200  Level FlightAware ADS-B
05:11PM 40.4317 -74.5461 91° East 317 365 10,200  Level FlightAware ADS-B
05:11PM 40.4315 -74.5310 78° East 318 366 10,200  Level FlightAware ADS-B
05:11PM 40.4333 -74.5196 70° East 318 366 10,200 -360 Level FlightAware ADS-B
05:11PM 40.4478 -74.4680 69° East 315 362 10,000 -840 Descending FlightAware ADS-B
05:12PM 40.4555 -74.4410 70° East 315 362 9,600 -1,560 Descending FlightAware ADS-B
05:12PM 40.4629 -74.4138 71° East 316 364 9,200 -1,560 Descending FlightAware ADS-B
05:12PM 40.4708 -74.3841 71° East 315 362 8,800 -1,560 Descending FlightAware ADS-B
05:12PM 40.4780 -74.3569 71° East 312 359 8,400 -1,560 Descending FlightAware ADS-B
05:13PM 40.4856 -74.3283 71° East 310 357 8,000 -1,500 Descending FlightAware ADS-B
05:13PM 40.4928 -74.3012 71° East 310 357 7,600 -1,380 Descending FlightAware ADS-B
05:13PM 40.4999 -74.2743 70° East 307 353 7,300 -780 Descending FlightAware ADS-B
05:13PM 40.5085 -74.2425 71° East 309 356 7,200 -180 Descending FlightAware ADS-B
05:14PM 40.5160 -74.2146 70° East 311 358 7,200  Level FlightAware ADS-B
05:14PM 40.5267 -74.1751 68° East 310 357 7,200  Level FlightAware ADS-B
05:14PM 40.5324 -74.1567 46° Northeast 310 357 7,200 -600 Level FlightAware ADS-B
05:15PM 40.5526 -74.1296 23° Northeast 303 349 6,900 -1,260 Descending FlightAware ADS-B
05:15PM 40.5756 -74.1166 21° North 298 343 6,400 -1,500 Descending FlightAware ADS-B
05:15PM 40.5989 -74.1050 21° North 294 338 6,000 -1,320 Descending FlightAware ADS-B
05:15PM 40.6178 -74.0956 20° North 290 334 5,700 -1,200 Descending FlightAware ADS-B
05:16PM 40.6540 -74.0778 22° Northeast 286 329 5,100 -1,260 Descending FlightAware ADS-B
05:17PM 40.7082 -74.0493 356° North 282 325 4,200 -1,260 Descending FlightAware ADS-B
05:17PM 40.7167 -74.0500 30° Northeast 287 330 4,000  Descending New York TRACON
05:18PM 40.8030 -73.9834 28° Northeast 284 327 4,200 -360 Climbing FlightAware ADS-B
05:19PM 40.8500 -73.9500 37° Northeast 282 325 3,300 -720 Descending New York TRACON
05:20PM 40.9167 -73.8833 75° East 284 327 3,000 -660 Descending New York TRACON
05:21PM 40.9333 -73.8000 159° South 238 274 2,000 -540 Descending New York TRACON
05:22PM 40.9000 -73.7833 204° Southwest 171 197 2,000 -360 Level New York TRACON
05:24PM 40.8167 -73.8333 204° Southwest 122 140 1,000 -540 Descending New York TRACON